createdAt,value
2016-08-19T00:00:02.958Z,23.15
2016-08-19T00:01:04.390Z,23.32
2016-08-19T00:02:03.678Z,23.27
2016-08-19T00:03:03.685Z,23.33
2016-08-19T00:04:02.981Z,23.38
2016-08-19T00:05:04.751Z,23.22
2016-08-19T00:06:03.695Z,23.27
2016-08-19T00:07:05.445Z,23.23
2016-08-19T00:08:04.415Z,23.2
2016-08-19T00:09:04.620Z,23.23
2016-08-19T00:10:03.718Z,23.22
2016-08-19T00:11:04.438Z,23.32
2016-08-19T00:12:03.726Z,23.35
2016-08-19T00:13:03.730Z,23.43
2016-08-19T00:14:04.447Z,23.46
2016-08-19T00:15:03.037Z,23.46
2016-08-19T00:16:03.052Z,23.39
2016-08-19T00:17:03.755Z,23.39
2016-08-19T00:18:03.761Z,23.23
2016-08-19T00:19:04.475Z,23.15
2016-08-19T00:20:04.426Z,23.22
2016-08-19T00:21:04.482Z,23.23
2016-08-19T00:22:03.782Z,23.25
2016-08-19T00:23:04.507Z,23.28
2016-08-19T00:24:03.088Z,23.25
2016-08-19T00:25:03.802Z,23.27
2016-08-19T00:26:03.109Z,23.36
2016-08-19T00:27:04.523Z,23.32
2016-08-19T00:28:03.815Z,23.31
2016-08-19T00:29:03.826Z,23.1
2016-08-19T00:30:03.119Z,23.22
2016-08-19T00:31:03.975Z,23.25
2016-08-19T00:32:04.545Z,23.33
2016-08-19T00:33:03.847Z,23.33
2016-08-19T00:34:03.849Z,23.2
2016-08-19T00:35:03.900Z,23.15
2016-08-19T00:36:03.864Z,23.15
2016-08-19T00:37:03.158Z,23.16
2016-08-19T00:38:04.628Z,23.04
2016-08-19T00:39:04.581Z,23.16
2016-08-19T00:40:05.028Z,23.15
2016-08-19T00:41:03.884Z,23.13
2016-08-19T00:42:04.235Z,23.15
2016-08-19T00:43:03.904Z,23.19
2016-08-19T00:44:03.900Z,23.22
2016-08-19T00:45:03.912Z,23.12
2016-08-19T00:46:03.914Z,23.17
2016-08-19T00:47:03.205Z,23.15
2016-08-19T00:48:03.215Z,23.13
2016-08-19T00:49:03.218Z,23.25
2016-08-19T00:50:03.928Z,23.2
2016-08-19T00:51:05.038Z,23.19
2016-08-19T00:52:03.938Z,23.23
2016-08-19T00:53:03.437Z,23.02
2016-08-19T00:54:03.242Z,23.04
2016-08-19T00:55:05.462Z,23.17
2016-08-19T00:56:03.963Z,23.22
2016-08-19T00:57:03.258Z,23.09
2016-08-19T00:58:03.971Z,23.01
2016-08-19T00:59:03.264Z,23.17
2016-08-19T01:00:03.983Z,23.17
2016-08-19T01:01:03.281Z,23.19
2016-08-19T01:02:04.001Z,23.19
2016-08-19T01:03:03.996Z,23.19
2016-08-19T01:04:04.713Z,23.2
2016-08-19T01:05:04.713Z,23.15
2016-08-19T01:06:05.297Z,23.22
2016-08-19T01:07:04.029Z,23.23
2016-08-19T01:08:04.070Z,23.16
2016-08-19T01:09:04.075Z,23.23
2016-08-19T01:10:04.030Z,23.16
2016-08-19T01:11:04.743Z,23.15
2016-08-19T01:12:04.755Z,23.13
2016-08-19T01:13:04.062Z,23.19
2016-08-19T01:14:04.056Z,23.16
2016-08-19T01:15:04.819Z,23.17
2016-08-19T01:16:04.079Z,23.23
2016-08-19T01:17:05.485Z,23.25
2016-08-19T01:18:04.075Z,23.33
2016-08-19T01:19:03.374Z,23.27
2016-08-19T01:20:04.798Z,23.38
2016-08-19T01:21:04.152Z,23.2
2016-08-19T01:22:04.102Z,23.38
2016-08-19T01:23:03.401Z,23.33
2016-08-19T01:24:04.823Z,23.2
2016-08-19T01:25:03.413Z,23.27
2016-08-19T01:26:04.124Z,23.23
2016-08-19T01:27:04.135Z,23.32
2016-08-19T01:28:04.933Z,23.28
2016-08-19T01:29:04.855Z,23.36
2016-08-19T01:30:04.149Z,23.15
2016-08-19T01:31:04.157Z,23.2
2016-08-19T01:32:03.458Z,23.19
2016-08-19T01:33:03.464Z,23.33
2016-08-19T01:34:03.468Z,23.15
2016-08-19T01:35:04.892Z,23.15
2016-08-19T01:36:04.184Z,23.19
2016-08-19T01:37:03.488Z,23.28
2016-08-19T01:38:04.200Z,23.19
2016-08-19T01:39:04.301Z,23.17
2016-08-19T01:40:04.209Z,23.13
2016-08-19T01:41:05.504Z,23.13
2016-08-19T01:42:03.519Z,23.23
2016-08-19T01:43:04.227Z,23.22
2016-08-19T01:44:19.114Z,23.2
2016-08-19T01:45:04.244Z,23.28
2016-08-19T01:46:03.545Z,23.16
2016-08-19T01:47:04.262Z,23.13
2016-08-19T01:48:04.963Z,23.15
2016-08-19T01:49:04.265Z,23.19
2016-08-19T01:50:04.976Z,23.17
2016-08-19T01:51:04.986Z,23.13
2016-08-19T01:52:05.600Z,23.17
2016-08-19T01:53:04.286Z,23.23
2016-08-19T01:54:04.291Z,23.15
2016-08-19T01:55:04.298Z,23.15
2016-08-19T01:56:05.012Z,23.19
2016-08-19T01:57:04.311Z,23.13
2016-08-19T01:58:05.027Z,23.2
2016-08-19T01:59:03.613Z,23.16
2016-08-19T02:00:04.326Z,23.17
2016-08-19T02:01:03.678Z,23.07
2016-08-19T02:02:05.044Z,23
2016-08-19T02:03:04.877Z,23.01
2016-08-19T02:04:04.355Z,22.97
2016-08-19T02:05:05.066Z,23.15
2016-08-19T02:06:05.071Z,23.13
2016-08-19T02:07:04.369Z,23.15
2016-08-19T02:08:03.668Z,23.16
2016-08-19T02:09:04.386Z,23.28
2016-08-19T02:10:04.440Z,23.16
2016-08-19T02:11:04.395Z,23.2
2016-08-19T02:12:05.925Z,23.17
2016-08-19T02:13:04.408Z,23.13
2016-08-19T02:14:05.269Z,22.98
2016-08-19T02:15:05.133Z,23.01
2016-08-19T02:16:05.128Z,22.98
2016-08-19T02:17:04.428Z,22.94
2016-08-19T02:18:04.438Z,23
2016-08-19T02:19:05.147Z,23.02
2016-08-19T02:20:03.745Z,23.02
2016-08-19T02:21:05.160Z,23.04
2016-08-19T02:22:03.799Z,23.1
2016-08-19T02:23:06.012Z,23.16
2016-08-19T02:24:05.180Z,23.2
2016-08-19T02:25:04.627Z,23.17
2016-08-19T02:26:04.489Z,23.22
2016-08-19T02:27:04.499Z,23.25
2016-08-19T02:28:03.782Z,23.16
2016-08-19T02:29:05.210Z,23.22
2016-08-19T02:30:04.507Z,23.25
2016-08-19T02:31:04.513Z,23.19
2016-08-19T02:32:04.516Z,23.15
2016-08-19T02:33:04.522Z,23.15
2016-08-19T02:34:03.823Z,23.2
2016-08-19T02:35:04.548Z,23.15
2016-08-19T02:36:04.632Z,23.16
2016-08-19T02:37:04.549Z,23.27
2016-08-19T02:38:05.890Z,23.15
2016-08-19T02:39:05.266Z,23.25
2016-08-19T02:40:04.717Z,23.16
2016-08-19T02:41:04.623Z,23.15
2016-08-19T02:42:04.581Z,23.13
2016-08-19T02:43:03.877Z,23.13
2016-08-19T02:44:05.299Z,23.01
2016-08-19T02:45:05.313Z,23.02
2016-08-19T02:46:04.606Z,23.04
2016-08-19T02:47:04.056Z,23.01
2016-08-19T02:48:04.614Z,23.04
2016-08-19T02:49:05.323Z,23.04
2016-08-19T02:50:05.339Z,23.13
2016-08-19T02:51:04.641Z,23.15
2016-08-19T02:52:03.933Z,23.17
2016-08-19T02:53:05.355Z,23.13
2016-08-19T02:54:05.360Z,23.13
2016-08-19T02:55:05.370Z,23.15
2016-08-19T02:56:05.372Z,23.16
2016-08-19T02:57:04.674Z,23.02
2016-08-19T02:58:04.679Z,23.05
2016-08-19T02:59:05.392Z,23.05
2016-08-19T03:00:05.439Z,23.05
2016-08-19T03:01:05.409Z,23.02
2016-08-19T03:02:04.702Z,23.02
2016-08-19T03:03:05.417Z,23.04
2016-08-19T03:04:04.716Z,23.09
2016-08-19T03:05:05.429Z,22.86
2016-08-19T03:06:04.726Z,22.94
2016-08-19T03:07:04.731Z,22.95
2016-08-19T03:08:04.031Z,22.94
2016-08-19T03:09:06.285Z,22.97
2016-08-19T03:10:04.751Z,23
2016-08-19T03:11:04.856Z,22.8
2016-08-19T03:12:05.483Z,22.67
2016-08-19T03:13:04.766Z,22.83
2016-08-19T03:14:05.481Z,22.82
2016-08-19T03:15:04.778Z,22.72
2016-08-19T03:16:05.486Z,22.7
2016-08-19T03:17:05.492Z,22.64
2016-08-19T03:18:04.796Z,22.73
2016-08-19T03:19:04.798Z,22.79
2016-08-19T03:20:04.802Z,22.79
2016-08-19T03:21:04.801Z,22.85
2016-08-19T03:22:04.954Z,22.92
2016-08-19T03:23:05.581Z,22.83
2016-08-19T03:24:06.298Z,22.88
2016-08-19T03:25:05.532Z,22.83
2016-08-19T03:26:05.541Z,22.67
2016-08-19T03:27:04.836Z,22.65
2016-08-19T03:28:05.547Z,22.75
2016-08-19T03:29:04.846Z,22.79
2016-08-19T03:30:04.852Z,22.9
2016-08-19T03:31:04.854Z,22.82
2016-08-19T03:32:04.867Z,22.86
2016-08-19T03:33:05.576Z,22.95
2016-08-19T03:34:04.868Z,22.79
2016-08-19T03:35:05.687Z,22.73
2016-08-19T03:36:04.882Z,22.83
2016-08-19T03:37:04.883Z,22.8
2016-08-19T03:38:04.893Z,22.98
2016-08-19T03:39:04.897Z,22.95
2016-08-19T03:40:05.608Z,22.97
2016-08-19T03:41:05.616Z,22.98
2016-08-19T03:42:04.909Z,22.88
2016-08-19T03:43:04.922Z,23
2016-08-19T03:44:04.378Z,22.91
2016-08-19T03:45:05.641Z,22.98
2016-08-19T03:46:06.392Z,22.98
2016-08-19T03:47:05.698Z,23.01
2016-08-19T03:48:04.241Z,23.07
2016-08-19T03:49:04.249Z,22.98
2016-08-19T03:50:05.665Z,23.05
2016-08-19T03:51:05.677Z,23.01
2016-08-19T03:52:04.972Z,23
2016-08-19T03:53:04.974Z,23.09
2016-08-19T03:54:05.693Z,23.04
2016-08-19T03:55:04.991Z,23.01
2016-08-19T03:56:05.704Z,22.97
2016-08-19T03:57:05.262Z,22.98
2016-08-19T03:58:05.006Z,23
2016-08-19T03:59:06.471Z,22.9
2016-08-19T04:00:05.023Z,22.91
2016-08-19T04:01:04.323Z,22.9
2016-08-19T04:02:05.033Z,22.85
2016-08-19T04:03:04.329Z,22.85
2016-08-19T04:04:05.751Z,22.95
2016-08-19T04:05:05.049Z,22.97
2016-08-19T04:06:05.059Z,22.91
2016-08-19T04:07:05.063Z,23.04
2016-08-19T04:08:05.165Z,22.97
2016-08-19T04:09:05.805Z,23.07
2016-08-19T04:10:05.081Z,23.09
2016-08-19T04:11:04.380Z,23.04
2016-08-19T04:12:04.385Z,23
2016-08-19T04:13:04.444Z,23.01
2016-08-19T04:14:05.114Z,23.01
2016-08-19T04:15:05.819Z,23.01
2016-08-19T04:16:05.125Z,23.04
2016-08-19T04:17:05.832Z,23
2016-08-19T04:18:05.132Z,22.97
2016-08-19T04:19:04.587Z,22.94
2016-08-19T04:20:05.853Z,22.97
2016-08-19T04:21:05.810Z,22.98
2016-08-19T04:22:05.861Z,22.98
2016-08-19T04:23:05.167Z,22.94
2016-08-19T04:24:05.167Z,22.95
2016-08-19T04:25:05.932Z,22.98
2016-08-19T04:26:05.179Z,22.97
2016-08-19T04:27:05.188Z,23
2016-08-19T04:28:04.486Z,22.95
2016-08-19T04:29:05.902Z,22.92
2016-08-19T04:30:05.926Z,22.86
2016-08-19T04:31:05.917Z,22.82
2016-08-19T04:32:06.366Z,22.9
2016-08-19T04:33:05.223Z,22.98
2016-08-19T04:34:05.935Z,22.97
2016-08-19T04:35:05.237Z,22.95
2016-08-19T04:36:05.947Z,22.88
2016-08-19T04:37:05.240Z,22.88
2016-08-19T04:38:05.299Z,22.9
2016-08-19T04:39:04.552Z,22.98
2016-08-19T04:40:05.969Z,22.86
2016-08-19T04:41:05.270Z,23.01
2016-08-19T04:42:05.275Z,22.97
2016-08-19T04:43:05.678Z,22.97
2016-08-19T04:44:05.994Z,22.94
2016-08-19T04:45:05.293Z,22.95
2016-08-19T04:46:06.056Z,22.94
2016-08-19T04:47:06.010Z,22.94
2016-08-19T04:48:05.361Z,22.86
2016-08-19T04:49:05.317Z,22.95
2016-08-19T04:50:05.327Z,22.85
2016-08-19T04:51:05.335Z,23
2016-08-19T04:52:06.044Z,22.97
2016-08-19T04:53:05.340Z,22.98
2016-08-19T04:54:06.095Z,23.05
2016-08-19T04:55:05.355Z,23.01
2016-08-19T04:56:05.369Z,23.01
2016-08-19T04:57:04.658Z,23.02
2016-08-19T04:58:06.079Z,23.02
2016-08-19T04:59:06.086Z,23.07
2016-08-19T05:00:05.384Z,22.97
2016-08-19T05:01:05.392Z,22.98
2016-08-19T05:02:06.106Z,23.07
2016-08-19T05:03:06.109Z,23
2016-08-19T05:04:05.410Z,23
2016-08-19T05:05:06.176Z,23.01
2016-08-19T05:06:06.127Z,23.04
2016-08-19T05:07:06.668Z,23.01
2016-08-19T05:08:04.728Z,23
2016-08-19T05:09:04.736Z,23.02
2016-08-19T05:10:05.698Z,22.98
2016-08-19T05:11:05.451Z,23.09
2016-08-19T05:12:05.462Z,23.04
2016-08-19T05:13:05.469Z,23.05
2016-08-19T05:14:05.473Z,23.17
2016-08-19T05:15:05.482Z,23.19
2016-08-19T05:16:05.534Z,23.17
2016-08-19T05:17:06.203Z,23.19
2016-08-19T05:18:07.061Z,23.17
2016-08-19T05:19:06.214Z,23.22
2016-08-19T05:20:05.516Z,23.2
2016-08-19T05:21:06.229Z,23.32
2016-08-19T05:22:06.285Z,23.32
2016-08-19T05:23:06.256Z,23.27
2016-08-19T05:24:05.542Z,23.35
2016-08-19T05:25:05.605Z,23.33
2016-08-19T05:26:05.561Z,23.36
2016-08-19T05:27:06.274Z,23.42
2016-08-19T05:28:05.586Z,23.42
2016-08-19T05:29:07.389Z,23.46
2016-08-19T05:30:06.298Z,23.47
2016-08-19T05:31:05.752Z,23.46
2016-08-19T05:32:04.904Z,23.47
2016-08-19T05:33:05.617Z,23.39
2016-08-19T05:34:06.330Z,23.42
2016-08-19T05:35:05.631Z,23.39
2016-08-19T05:36:05.637Z,23.39
2016-08-19T05:37:05.647Z,23.36
2016-08-19T05:38:05.704Z,23.39
2016-08-19T05:39:05.002Z,23.33
2016-08-19T05:40:06.864Z,23.46
2016-08-19T05:41:06.394Z,23.4
2016-08-19T05:42:06.390Z,23.46
2016-08-19T05:43:05.683Z,23.46
2016-08-19T05:44:05.696Z,23.38
2016-08-19T05:45:06.406Z,23.47
2016-08-19T05:46:06.414Z,23.39
2016-08-19T05:47:05.006Z,23.46
2016-08-19T05:48:05.912Z,23.35
2016-08-19T05:49:06.433Z,23.36
2016-08-19T05:50:05.733Z,23.4
2016-08-19T05:51:06.150Z,23.42
2016-08-19T05:52:05.743Z,23.4
2016-08-19T05:53:05.753Z,23.42
2016-08-19T05:54:05.758Z,23.48
2016-08-19T05:55:05.765Z,23.39
2016-08-19T05:56:05.776Z,23.51
2016-08-19T05:57:05.785Z,23.47
2016-08-19T05:58:06.493Z,23.47
2016-08-19T05:59:05.795Z,23.43
2016-08-19T06:00:06.203Z,23.43
2016-08-19T06:01:05.807Z,23.42
2016-08-19T06:02:06.367Z,23.46
2016-08-19T06:03:05.116Z,23.42
2016-08-19T06:04:06.545Z,23.39
2016-08-19T06:05:05.835Z,23.38
2016-08-19T06:06:05.837Z,23.39
2016-08-19T06:07:05.140Z,23.27
2016-08-19T06:08:06.559Z,23.33
2016-08-19T06:09:05.857Z,23.43
2016-08-19T06:10:05.868Z,23.43
2016-08-19T06:11:06.578Z,23.38
2016-08-19T06:12:06.586Z,23.47
2016-08-19T06:13:05.882Z,23.55
2016-08-19T06:14:05.897Z,23.43
2016-08-19T06:15:05.905Z,23.4
2016-08-19T06:16:05.905Z,23.53
2016-08-19T06:17:06.311Z,23.48
2016-08-19T06:18:06.623Z,23.57
2016-08-19T06:19:06.625Z,23.53
2016-08-19T06:20:05.983Z,23.58
2016-08-19T06:21:06.642Z,23.58
2016-08-19T06:22:05.943Z,23.68
2016-08-19T06:23:05.998Z,23.54
2016-08-19T06:24:05.247Z,23.69
2016-08-19T06:25:06.012Z,23.73
2016-08-19T06:26:07.290Z,23.84
2016-08-19T06:27:05.976Z,23.85
2016-08-19T06:28:06.433Z,24
2016-08-19T06:29:05.996Z,24.06
2016-08-19T06:30:06.705Z,24.15
2016-08-19T06:31:05.296Z,24.2
2016-08-19T06:32:06.717Z,24.35
2016-08-19T06:33:06.021Z,24.37
2016-08-19T06:34:06.027Z,24.42
2016-08-19T06:35:05.336Z,24.57
2016-08-19T06:36:06.045Z,24.53
2016-08-19T06:37:07.361Z,24.64
2016-08-19T06:38:06.772Z,24.69
2016-08-19T06:39:06.086Z,24.78
2016-08-19T06:40:06.137Z,24.88
2016-08-19T06:41:06.796Z,24.9
2016-08-19T06:42:06.098Z,24.88
2016-08-19T06:43:06.108Z,25.02
2016-08-19T06:44:06.828Z,25.09
2016-08-19T06:45:06.838Z,25.09
2016-08-19T06:46:06.137Z,25.05
2016-08-19T06:47:06.149Z,25.15
2016-08-19T06:48:06.960Z,25.2
2016-08-19T06:49:06.881Z,25.21
2016-08-19T06:50:06.183Z,25.1
2016-08-19T06:51:06.897Z,25.27
2016-08-19T06:52:06.200Z,25.23
2016-08-19T06:53:06.217Z,25.21
2016-08-19T06:54:05.513Z,25.3
2016-08-19T06:55:05.521Z,25.36
2016-08-19T06:56:06.245Z,25.39
2016-08-19T06:57:06.958Z,25.39
2016-08-19T06:58:06.263Z,25.47
2016-08-19T06:59:06.677Z,25.43
2016-08-19T07:00:06.997Z,25.51
2016-08-19T07:01:06.296Z,25.5
2016-08-19T07:02:06.303Z,25.5
2016-08-19T07:03:07.219Z,25.54
2016-08-19T07:04:06.324Z,25.54
2016-08-19T07:05:07.044Z,25.6
2016-08-19T07:06:05.650Z,25.58
2016-08-19T07:07:06.357Z,25.62
2016-08-19T07:08:05.665Z,25.73
2016-08-19T07:09:07.085Z,25.77
2016-08-19T07:10:05.984Z,25.75
2016-08-19T07:11:06.397Z,25.76
2016-08-19T07:12:08.059Z,25.67
2016-08-19T07:13:07.138Z,25.7
2016-08-19T07:14:06.629Z,25.6
2016-08-19T07:15:07.158Z,25.39
2016-08-19T07:16:05.749Z,25.23
2016-08-19T07:17:07.169Z,25.14
2016-08-19T07:18:06.473Z,24.93
2016-08-19T07:19:06.486Z,24.91
2016-08-19T07:20:06.490Z,24.87
2016-08-19T07:21:06.504Z,24.76
2016-08-19T07:22:07.219Z,24.68
2016-08-19T07:23:08.334Z,24.62
2016-08-19T07:24:07.299Z,24.62
2016-08-19T07:25:07.647Z,24.67
2016-08-19T07:26:06.544Z,24.62
2016-08-19T07:27:06.572Z,24.61
2016-08-19T07:28:06.563Z,24.61
2016-08-19T07:29:06.624Z,24.55
2016-08-19T07:30:05.876Z,24.58
2016-08-19T07:31:06.587Z,24.55
2016-08-19T07:32:05.891Z,24.5
2016-08-19T07:33:05.917Z,24.53
2016-08-19T07:34:07.943Z,24.52
2016-08-19T07:35:06.640Z,24.52
2016-08-19T07:36:07.082Z,24.5
2016-08-19T07:37:07.347Z,24.52
2016-08-19T07:38:07.353Z,24.49
2016-08-19T07:39:06.651Z,24.57
2016-08-19T07:40:06.667Z,24.5
2016-08-19T07:41:06.677Z,24.52
2016-08-19T07:42:07.390Z,24.5
2016-08-19T07:43:05.978Z,24.5
2016-08-19T07:44:07.401Z,24.46
2016-08-19T07:45:05.994Z,24.43
2016-08-19T07:46:06.714Z,24.52
2016-08-19T07:47:06.716Z,24.45
2016-08-19T07:48:06.727Z,24.45
2016-08-19T07:49:07.856Z,24.53
2016-08-19T07:50:06.745Z,24.55
2016-08-19T07:51:06.749Z,24.47
2016-08-19T07:52:07.468Z,24.45
2016-08-19T07:53:06.072Z,24.5
2016-08-19T07:54:06.768Z,24.49
2016-08-19T07:55:06.776Z,24.45
2016-08-19T07:56:07.128Z,24.45
2016-08-19T07:57:06.800Z,24.47
2016-08-19T07:58:06.998Z,24.46
2016-08-19T07:59:06.100Z,24.42
2016-08-19T08:00:08.376Z,24.47
2016-08-19T08:01:07.531Z,24.35
2016-08-19T08:02:07.534Z,24.47
2016-08-19T08:03:07.546Z,24.45
2016-08-19T08:04:06.852Z,24.47
2016-08-19T08:05:07.572Z,24.39
2016-08-19T08:06:07.560Z,24.39
2016-08-19T08:07:06.866Z,24.39
2016-08-19T08:08:07.584Z,24.43
2016-08-19T08:09:06.880Z,24.35
2016-08-19T08:10:06.883Z,24.35
2016-08-19T08:11:08.705Z,24.37
2016-08-19T08:12:06.907Z,24.34
2016-08-19T08:13:06.204Z,24.4
2016-08-19T08:14:06.914Z,24.35
2016-08-19T08:15:06.923Z,24.34
2016-08-19T08:16:07.634Z,24.32
2016-08-19T08:17:06.936Z,24.39
2016-08-19T08:18:06.944Z,24.32
2016-08-19T08:19:06.949Z,24.31
2016-08-19T08:20:07.064Z,24.32
2016-08-19T08:21:06.964Z,24.37
2016-08-19T08:22:07.621Z,24.31
2016-08-19T08:23:06.975Z,24.31
2016-08-19T08:24:06.983Z,24.28
2016-08-19T08:25:07.009Z,24.31
2016-08-19T08:26:06.997Z,24.24
2016-08-19T08:27:07.713Z,24.2
2016-08-19T08:28:07.719Z,24.24
2016-08-19T08:29:07.022Z,24.22
2016-08-19T08:30:07.026Z,24.3
2016-08-19T08:31:06.428Z,24.3
2016-08-19T08:32:06.334Z,24.25
2016-08-19T08:33:08.503Z,24.22
2016-08-19T08:34:06.347Z,24.24
2016-08-19T08:35:06.355Z,24.22
2016-08-19T08:36:07.075Z,24.25
2016-08-19T08:37:07.076Z,24.25
2016-08-19T08:38:07.083Z,24.2
2016-08-19T08:39:06.383Z,24.24
2016-08-19T08:40:07.798Z,24.21
2016-08-19T08:41:07.151Z,24.25
2016-08-19T08:42:08.679Z,24.24
2016-08-19T08:43:07.121Z,24.24
2016-08-19T08:44:07.369Z,24.21
2016-08-19T08:45:07.135Z,24.25
2016-08-19T08:46:06.544Z,24.22
2016-08-19T08:47:07.145Z,24.22
2016-08-19T08:48:07.857Z,24.21
2016-08-19T08:49:07.157Z,24.31
2016-08-19T08:50:06.462Z,24.32
2016-08-19T08:51:07.167Z,24.37
2016-08-19T08:52:07.881Z,24.32
2016-08-19T08:53:06.477Z,24.3
2016-08-19T08:54:07.196Z,24.31
2016-08-19T08:55:08.010Z,24.32
2016-08-19T08:56:06.498Z,24.28
2016-08-19T08:57:08.688Z,24.4
2016-08-19T08:58:06.510Z,24.35
2016-08-19T08:59:06.524Z,24.3
2016-08-19T09:00:07.988Z,24.45
2016-08-19T09:01:07.948Z,24.34
2016-08-19T09:02:08.005Z,24.39
2016-08-19T09:03:07.954Z,24.39
2016-08-19T09:04:07.967Z,24.43
2016-08-19T09:05:07.273Z,24.37
2016-08-19T09:06:07.984Z,24.45
2016-08-19T09:07:07.989Z,24.47
2016-08-19T09:08:06.579Z,24.45
2016-08-19T09:09:08.002Z,24.35
2016-08-19T09:10:07.354Z,24.35
2016-08-19T09:11:07.312Z,24.46
2016-08-19T09:12:06.610Z,24.49
2016-08-19T09:13:08.029Z,24.42
2016-08-19T09:14:22.208Z,24.5
2016-08-19T09:15:07.340Z,24.53
2016-08-19T09:16:07.392Z,24.46
2016-08-19T09:17:08.167Z,24.5
2016-08-19T09:18:07.356Z,24.57
2016-08-19T09:19:08.839Z,24.47
2016-08-19T09:20:07.375Z,24.39
2016-08-19T09:21:08.092Z,24.39
2016-08-19T09:22:06.682Z,24.45
2016-08-19T09:23:07.391Z,24.43
2016-08-19T09:24:08.108Z,24.45
2016-08-19T09:25:06.755Z,24.42
2016-08-19T09:26:07.417Z,24.42
2016-08-19T09:27:07.423Z,24.43
2016-08-19T09:28:08.139Z,24.45
2016-08-19T09:29:07.438Z,24.45
2016-08-19T09:30:06.796Z,24.45
2016-08-19T09:31:07.505Z,24.47
2016-08-19T09:32:07.706Z,24.47
2016-08-19T09:33:07.469Z,24.47
2016-08-19T09:34:07.535Z,24.46
2016-08-19T09:35:08.189Z,24.52
2016-08-19T09:36:07.499Z,24.49
2016-08-19T09:37:06.790Z,24.45
2016-08-19T09:38:07.503Z,24.47
2016-08-19T09:39:07.516Z,24.46
2016-08-19T09:40:06.811Z,24.47
2016-08-19T09:41:08.885Z,24.46
2016-08-19T09:42:08.238Z,24.49
2016-08-19T09:43:08.245Z,24.6
2016-08-19T09:44:08.257Z,24.5
2016-08-19T09:45:07.607Z,24.5
2016-08-19T09:46:08.271Z,24.5
2016-08-19T09:47:07.578Z,24.5
2016-08-19T09:48:08.282Z,24.52
2016-08-19T09:49:07.589Z,24.49
2016-08-19T09:50:07.599Z,24.55
2016-08-19T09:51:07.608Z,24.5
2016-08-19T09:52:06.909Z,24.57
2016-08-19T09:53:07.764Z,24.47
2016-08-19T09:54:07.626Z,24.55
2016-08-19T09:55:07.629Z,24.57
2016-08-19T09:56:07.639Z,24.53
2016-08-19T09:57:08.354Z,24.6
2016-08-19T09:58:07.654Z,24.53
2016-08-19T09:59:08.365Z,24.55
2016-08-19T10:00:08.374Z,24.57
2016-08-19T10:01:08.385Z,24.53
2016-08-19T10:02:07.688Z,24.58
2016-08-19T10:03:08.599Z,24.55
2016-08-19T10:04:08.404Z,24.57
2016-08-19T10:05:07.002Z,24.6
2016-08-19T10:06:07.766Z,24.65
2016-08-19T10:07:08.425Z,24.53
2016-08-19T10:08:07.016Z,24.55
2016-08-19T10:09:07.027Z,24.53
2016-08-19T10:10:08.499Z,24.55
2016-08-19T10:11:07.751Z,24.55
2016-08-19T10:12:07.754Z,24.58
2016-08-19T10:13:07.810Z,24.64
2016-08-19T10:14:09.130Z,24.67
2016-08-19T10:15:08.487Z,24.52
2016-08-19T10:16:07.582Z,24.55
2016-08-19T10:17:08.498Z,24.57
2016-08-19T10:18:08.856Z,24.58
2016-08-19T10:19:07.810Z,24.52
2016-08-19T10:20:07.817Z,24.53
2016-08-19T10:21:07.822Z,24.55
2016-08-19T10:22:07.832Z,24.61
2016-08-19T10:23:08.543Z,24.6
2016-08-19T10:24:07.844Z,24.61
2016-08-19T10:25:08.566Z,24.62
2016-08-19T10:26:07.860Z,24.64
2016-08-19T10:27:07.919Z,24.62
2016-08-19T10:28:07.164Z,24.62
2016-08-19T10:29:08.283Z,24.58
2016-08-19T10:30:08.595Z,24.62
2016-08-19T10:31:08.604Z,24.67
2016-08-19T10:32:07.911Z,24.64
2016-08-19T10:33:07.917Z,24.68
2016-08-19T10:34:07.214Z,24.69
2016-08-19T10:35:07.927Z,24.65
2016-08-19T10:36:07.941Z,24.58
2016-08-19T10:37:07.238Z,24.6
2016-08-19T10:38:07.255Z,24.64
2016-08-19T10:39:07.251Z,24.69
2016-08-19T10:40:08.516Z,24.61
2016-08-19T10:41:07.972Z,24.61
2016-08-19T10:42:07.271Z,24.64
2016-08-19T10:43:07.985Z,24.6
2016-08-19T10:44:08.754Z,24.65
2016-08-19T10:45:07.343Z,24.68
2016-08-19T10:46:08.008Z,24.62
2016-08-19T10:47:08.725Z,24.69
2016-08-19T10:48:08.024Z,24.65
2016-08-19T10:49:09.781Z,24.64
2016-08-19T10:50:07.339Z,24.67
2016-08-19T10:51:08.859Z,24.64
2016-08-19T10:52:08.778Z,24.61
2016-08-19T10:53:08.769Z,24.64
2016-08-19T10:54:08.066Z,24.55
2016-08-19T10:55:08.079Z,24.64
2016-08-19T10:56:08.790Z,24.62
2016-08-19T10:57:08.101Z,24.64
2016-08-19T10:58:08.100Z,24.64
2016-08-19T10:59:08.111Z,24.62
2016-08-19T11:00:09.091Z,24.68
2016-08-19T11:01:08.882Z,24.62
2016-08-19T11:02:08.534Z,24.62
2016-08-19T11:03:08.139Z,24.62
2016-08-19T11:04:10.007Z,24.67
2016-08-19T11:05:08.859Z,24.6
2016-08-19T11:06:07.501Z,24.6
2016-08-19T11:07:08.180Z,24.67
2016-08-19T11:08:08.880Z,24.55
2016-08-19T11:09:08.942Z,24.6
2016-08-19T11:10:07.483Z,24.64
2016-08-19T11:11:09.594Z,24.62
2016-08-19T11:12:08.214Z,24.68
2016-08-19T11:13:09.190Z,24.64
2016-08-19T11:14:07.513Z,24.65
2016-08-19T11:15:08.227Z,24.62
2016-08-19T11:16:08.246Z,24.61
2016-08-19T11:17:07.534Z,24.62
2016-08-19T11:18:07.540Z,24.65
2016-08-19T11:19:07.549Z,24.67
2016-08-19T11:20:08.270Z,24.6
2016-08-19T11:21:08.271Z,24.62
2016-08-19T11:22:07.569Z,24.64
2016-08-19T11:23:08.285Z,24.69
2016-08-19T11:24:08.793Z,24.65
2016-08-19T11:25:07.593Z,24.62
2016-08-19T11:26:10.290Z,24.68
2016-08-19T11:27:09.021Z,24.67
2016-08-19T11:28:08.320Z,24.62
2016-08-19T11:29:08.332Z,24.62
2016-08-19T11:30:09.045Z,24.62
2016-08-19T11:31:08.345Z,24.68
2016-08-19T11:32:08.349Z,24.68
2016-08-19T11:33:08.407Z,24.61
2016-08-19T11:34:07.657Z,24.64
2016-08-19T11:35:08.482Z,24.68
2016-08-19T11:36:09.099Z,24.68
2016-08-19T11:37:08.392Z,24.69
2016-08-19T11:38:08.399Z,24.71
2016-08-19T11:39:08.407Z,24.62
2016-08-19T11:40:09.121Z,24.64
2016-08-19T11:41:09.127Z,24.62
2016-08-19T11:42:09.150Z,24.62
2016-08-19T11:43:09.143Z,24.65
2016-08-19T11:44:08.455Z,24.65
2016-08-19T11:45:08.450Z,24.68
2016-08-19T11:46:08.609Z,24.68
2016-08-19T11:47:08.463Z,24.71
2016-08-19T11:48:09.916Z,24.65
2016-08-19T11:49:07.774Z,24.68
2016-08-19T11:50:08.490Z,24.68
2016-08-19T11:51:08.493Z,24.62
2016-08-19T11:52:08.555Z,24.64
2016-08-19T11:53:08.515Z,24.68
2016-08-19T11:54:07.862Z,24.65
2016-08-19T11:55:07.819Z,24.69
2016-08-19T11:56:08.530Z,24.69
2016-08-19T11:57:09.363Z,24.68
2016-08-19T11:58:08.609Z,24.62
2016-08-19T11:59:09.438Z,24.68
2016-08-19T12:00:08.574Z,24.64
2016-08-19T12:01:08.722Z,24.65
2016-08-19T12:02:07.873Z,24.62
2016-08-19T12:03:08.586Z,24.68
2016-08-19T12:04:09.301Z,24.64
2016-08-19T12:05:07.899Z,24.77
2016-08-19T12:06:09.418Z,24.69
2016-08-19T12:07:08.719Z,24.68
2016-08-19T12:08:08.734Z,24.65
2016-08-19T12:09:09.337Z,24.68
2016-08-19T12:10:09.788Z,24.69
2016-08-19T12:11:09.404Z,24.69
2016-08-19T12:12:08.398Z,24.67
2016-08-19T12:13:08.055Z,24.67
2016-08-19T12:14:11.027Z,24.62
2016-08-19T12:15:07.973Z,24.68
2016-08-19T12:16:08.703Z,24.68
2016-08-19T12:17:09.406Z,24.67
2016-08-19T12:18:08.700Z,24.67
2016-08-19T12:19:09.418Z,24.71
2016-08-19T12:20:09.436Z,24.78
2016-08-19T12:21:09.661Z,24.73
2016-08-19T12:22:08.743Z,24.65
2016-08-19T12:23:09.744Z,24.67
2016-08-19T12:24:09.502Z,24.61
2016-08-19T12:25:09.459Z,24.65
2016-08-19T12:26:08.761Z,24.77
2016-08-19T12:27:08.775Z,24.69
2016-08-19T12:28:09.581Z,24.67
2016-08-19T12:29:08.879Z,24.71
2016-08-19T12:30:08.085Z,24.76
2016-08-19T12:31:09.559Z,24.65
2016-08-19T12:32:10.165Z,24.65
2016-08-19T12:33:08.865Z,24.65
2016-08-19T12:34:09.326Z,24.68
2016-08-19T12:35:08.829Z,24.65
2016-08-19T12:36:09.601Z,24.68
2016-08-19T12:37:09.658Z,24.73
2016-08-19T12:38:08.853Z,24.67
2016-08-19T12:39:08.907Z,24.68
2016-08-19T12:40:08.863Z,24.73
2016-08-19T12:41:08.871Z,24.77
2016-08-19T12:42:08.939Z,24.71
2016-08-19T12:43:08.245Z,24.68
2016-08-19T12:44:11.145Z,24.8
2016-08-19T12:45:08.900Z,24.73
2016-08-19T12:46:09.664Z,24.73
2016-08-19T12:47:10.073Z,24.64
2016-08-19T12:48:09.679Z,24.76
2016-08-19T12:49:09.689Z,24.71
2016-08-19T12:50:08.933Z,24.77
2016-08-19T12:51:08.944Z,24.77
2016-08-19T12:52:09.061Z,24.73
2016-08-19T12:53:08.351Z,24.73
2016-08-19T12:54:09.969Z,24.67
2016-08-19T12:55:09.022Z,24.76
2016-08-19T12:56:09.128Z,24.62